createdAt,value
2023-04-16T00:00:50.523Z,12.65
2023-04-16T00:06:07.552Z,13.79
2023-04-16T00:11:10.763Z,14.43
2023-04-16T00:16:14.127Z,13.92
2023-04-16T00:21:17.283Z,11.81
2023-04-16T00:26:20.825Z,10.46
2023-04-16T00:31:32.604Z,10.47
2023-04-16T00:36:35.818Z,12.47
2023-04-16T00:41:39.016Z,13.63
2023-04-16T00:46:46.259Z,14.34
2023-04-16T00:51:49.543Z,14.82
2023-04-16T00:56:52.743Z,14.31
2023-04-16T01:01:56.124Z,12.33
2023-04-16T01:07:00.847Z,11.03
2023-04-16T01:12:04.018Z,10.12
2023-04-16T01:17:07.125Z,10.57
2023-04-16T01:22:10.235Z,13.52
2023-04-16T01:27:13.334Z,14.29
2023-04-16T01:32:16.685Z,14.54
2023-04-16T01:37:19.866Z,14.06
2023-04-16T01:42:22.888Z,12.02
2023-04-16T01:47:26.288Z,10.72
2023-04-16T01:52:29.476Z,9.85
2023-04-16T01:57:32.580Z,10.43
2023-04-16T02:02:36.839Z,12.94
2023-04-16T02:07:40.025Z,13.96
2023-04-16T02:12:43.033Z,14.51
2023-04-16T02:17:46.916Z,14.83
2023-04-16T02:22:50.061Z,14.20
2023-04-16T02:27:53.177Z,12.01
2023-04-16T02:32:56.201Z,10.60
2023-04-16T02:38:00.007Z,10.75
2023-04-16T02:43:03.603Z,13.21
2023-04-16T02:48:09.016Z,13.97
2023-04-16T02:53:12.174Z,14.24
2023-04-16T02:58:15.721Z,13.64
2023-04-16T03:03:19.047Z,11.59
2023-04-16T03:08:22.326Z,10.18
2023-04-16T03:13:25.624Z,10.26
2023-04-16T03:18:28.728Z,12.21
2023-04-16T03:23:32.343Z,13.21
2023-04-16T03:28:35.558Z,13.84
2023-04-16T03:33:38.603Z,14.33
2023-04-16T03:38:41.667Z,13.82
2023-04-16T03:43:45.002Z,11.70
2023-04-16T03:48:48.092Z,10.24
2023-04-16T03:53:51.203Z,10.14
2023-04-16T03:58:54.418Z,12.04
2023-04-16T04:03:57.592Z,13.05
2023-04-16T04:09:00.863Z,13.44
2023-04-16T04:14:05.424Z,13.69
2023-04-16T04:19:08.791Z,13.07
2023-04-16T04:24:12.220Z,11.05
2023-04-16T04:29:15.498Z,9.65
2023-04-16T04:34:19.454Z,9.63
2023-04-16T04:39:23.151Z,11.54
2023-04-16T04:44:26.248Z,12.55
2023-04-16T04:49:30.801Z,13.07
2023-04-16T04:54:34.311Z,13.31
2023-04-16T04:59:37.407Z,13.17
2023-04-16T05:04:40.462Z,11.25
2023-04-16T05:09:43.625Z,9.74
2023-04-16T05:14:46.846Z,8.92
2023-04-16T05:19:49.938Z,9.45
2023-04-16T05:24:53.062Z,11.76
2023-04-16T05:29:56.396Z,12.75
2023-04-16T05:34:59.365Z,13.34
2023-04-16T05:40:02.879Z,13.75
2023-04-16T05:45:07.182Z,14.11
2023-04-16T05:50:11.347Z,12.81
2023-04-16T05:55:14.504Z,10.91
2023-04-16T06:00:18.233Z,9.86
2023-04-16T06:05:21.526Z,10.11
2023-04-16T06:10:24.700Z,12.11
2023-04-16T06:15:28.090Z,13.21
2023-04-16T06:20:31.624Z,13.79
2023-04-16T06:25:34.827Z,13.17
2023-04-16T06:30:37.928Z,11.08
2023-04-16T06:35:41.095Z,9.97
2023-04-16T06:40:44.345Z,10.13
2023-04-16T06:45:47.375Z,12.25
2023-04-16T06:50:51.201Z,13.41
2023-04-16T06:55:54.293Z,14.00
2023-04-16T07:00:57.664Z,13.58
2023-04-16T07:06:00.922Z,11.74
2023-04-16T07:11:04.128Z,10.77
2023-04-16T07:16:07.360Z,10.98
2023-04-16T07:21:10.949Z,12.87
2023-04-16T07:26:14.146Z,14.02
2023-04-16T07:31:17.613Z,13.99
2023-04-16T07:36:21.082Z,12.20
2023-04-16T07:41:24.729Z,11.12
2023-04-16T07:46:36.138Z,10.55
2023-04-16T07:51:47.398Z,11.26
2023-04-16T07:56:50.637Z,13.45
2023-04-16T08:01:54.603Z,14.71
2023-04-16T08:06:57.753Z,14.54
2023-04-16T08:12:01.791Z,13.02
2023-04-16T08:17:05.008Z,12.27
2023-04-16T08:22:08.297Z,11.43
2023-04-16T08:27:19.347Z,10.59
2023-04-16T08:32:23.548Z,11.32
2023-04-16T08:37:27.043Z,13.36
2023-04-16T08:42:41.653Z,14.30
2023-04-16T08:47:52.945Z,13.82
2023-04-16T08:53:01.008Z,11.93
2023-04-16T08:58:19.525Z,10.75
2023-04-16T09:03:23.362Z,10.20
2023-04-16T09:08:29.800Z,12.14
2023-04-16T09:13:33.122Z,13.88
2023-04-16T09:18:36.234Z,14.77
2023-04-16T09:23:40.266Z,14.40
2023-04-16T09:28:49.584Z,12.67
2023-04-16T09:34:07.048Z,11.64
2023-04-16T09:39:22.558Z,10.91
2023-04-16T09:44:39.736Z,10.47
2023-04-16T09:49:43.673Z,11.17
2023-04-16T09:54:51.317Z,13.29
2023-04-16T10:00:03.041Z,14.37
2023-04-16T10:05:06.993Z,14.08
2023-04-16T10:10:10.784Z,12.30
2023-04-16T10:15:14.082Z,11.15
2023-04-16T10:20:19.060Z,10.44
2023-04-16T10:25:23.593Z,10.79
2023-04-16T10:30:28.227Z,12.97
2023-04-16T10:35:31.630Z,14.26
2023-04-16T10:40:35.697Z,14.29
2023-04-16T10:45:38.980Z,12.62
2023-04-16T10:50:42.081Z,11.47
2023-04-16T10:55:58.830Z,10.67
2023-04-16T11:01:13.535Z,11.12
2023-04-16T11:06:24.904Z,13.19
2023-04-16T11:11:39.685Z,14.31
2023-04-16T11:16:42.965Z,14.04
2023-04-16T11:21:46.701Z,12.24
2023-04-16T11:26:52.422Z,11.12
2023-04-16T11:31:55.794Z,10.52
2023-04-16T11:36:59.501Z,10.89
2023-04-16T11:42:02.646Z,13.06
2023-04-16T11:47:07.942Z,14.18
2023-04-16T11:52:11.402Z,14.79
2023-04-16T11:57:28.039Z,14.56
2023-04-16T12:02:51.655Z,12.62
2023-04-16T12:07:56.429Z,11.32
2023-04-16T12:13:18.054Z,10.72
2023-04-16T12:18:24.505Z,11.29
2023-04-16T12:23:31.016Z,13.54
2023-04-16T12:28:40.392Z,14.79
2023-04-16T12:33:43.394Z,14.64
2023-04-16T12:38:46.765Z,12.77
2023-04-16T12:43:49.931Z,11.50
2023-04-16T12:48:52.996Z,10.83
2023-04-16T12:53:56.139Z,10.46
2023-04-16T12:58:59.271Z,11.07
2023-04-16T13:04:02.611Z,13.39
2023-04-16T13:09:06.260Z,14.73
2023-04-16T13:14:09.368Z,14.64
2023-04-16T13:19:12.785Z,13.11
2023-04-16T13:24:16.403Z,12.24
2023-04-16T13:29:20.564Z,11.70
2023-04-16T13:34:23.948Z,11.33
2023-04-16T13:39:27.367Z,10.99
2023-04-16T13:44:30.770Z,11.59
2023-04-16T13:49:36.145Z,13.79
2023-04-16T13:54:40.768Z,15.05
2023-04-16T13:59:44.285Z,15.85
2023-04-16T14:04:47.737Z,15.78
2023-04-16T14:09:50.914Z,14.14
2023-04-16T14:14:54.132Z,13.18
2023-04-16T14:19:57.332Z,12.61
2023-04-16T14:25:01.355Z,12.06
2023-04-16T14:30:06.509Z,11.55
2023-04-16T14:35:10.449Z,11.11
2023-04-16T14:40:13.793Z,11.59
2023-04-16T14:45:17.062Z,13.78
2023-04-16T14:50:20.112Z,15.06
2023-04-16T14:55:23.397Z,14.95
2023-04-16T15:00:28.964Z,13.23
2023-04-16T15:05:32.349Z,12.15
2023-04-16T15:10:35.660Z,11.45
2023-04-16T15:15:38.794Z,10.94
2023-04-16T15:20:42.180Z,10.54
2023-04-16T15:25:45.394Z,11.15
2023-04-16T15:30:48.637Z,13.34
2023-04-16T15:35:51.927Z,14.55
2023-04-16T15:40:55.052Z,14.45
2023-04-16T15:45:58.285Z,12.73
2023-04-16T15:51:01.471Z,11.64
2023-04-16T15:56:05.076Z,10.98
2023-04-16T16:01:08.888Z,10.54
2023-04-16T16:06:11.982Z,11.07
2023-04-16T16:11:15.092Z,13.30
2023-04-16T16:16:18.230Z,14.66
2023-04-16T16:21:21.409Z,14.68
2023-04-16T16:26:24.718Z,12.95
2023-04-16T16:31:27.947Z,11.86
2023-04-16T16:36:32.671Z,11.21
2023-04-16T16:41:42.081Z,10.63
2023-04-16T16:46:45.413Z,11.16
2023-04-16T16:51:48.972Z,13.34
2023-04-16T16:56:53.390Z,15.08
2023-04-16T17:01:56.563Z,15.49
2023-04-16T17:07:00.023Z,13.38
2023-04-16T17:12:03.332Z,12.02
2023-04-16T17:17:06.531Z,11.22
2023-04-16T17:22:10.835Z,10.67
2023-04-16T17:27:14.183Z,10.26
2023-04-16T17:32:17.379Z,10.90
2023-04-16T17:37:20.502Z,13.22
2023-04-16T17:42:24.932Z,14.56
2023-04-16T17:47:28.313Z,14.56
2023-04-16T17:52:31.877Z,12.90
2023-04-16T17:57:35.386Z,11.76
2023-04-16T18:02:41.101Z,10.93
2023-04-16T18:07:44.454Z,10.29
2023-04-16T18:12:47.985Z,10.77
2023-04-16T18:17:51.255Z,13.05
2023-04-16T18:22:54.602Z,14.33
2023-04-16T18:27:59.052Z,15.16
2023-04-16T18:38:08.356Z,12.86
2023-04-16T18:43:11.533Z,11.70
2023-04-16T18:48:14.636Z,10.93
2023-04-16T18:53:17.963Z,10.36
2023-04-16T18:58:21.888Z,10.81
2023-04-16T19:03:27.525Z,13.00
2023-04-16T19:08:31.052Z,14.30
2023-04-16T19:13:34.150Z,15.05
2023-04-16T19:18:38.630Z,14.63
2023-04-16T19:23:41.704Z,12.71
2023-04-16T19:28:46.226Z,11.45
2023-04-16T19:33:49.343Z,10.62
2023-04-16T19:38:52.686Z,10.06
2023-04-16T19:43:55.874Z,10.52
2023-04-16T19:48:59.094Z,12.74
2023-04-16T19:54:02.497Z,14.09
2023-04-16T19:59:05.617Z,14.85
2023-04-16T20:04:08.923Z,14.49
2023-04-16T20:09:12.719Z,12.53
2023-04-16T20:14:16.038Z,11.29
2023-04-16T20:19:19.772Z,10.50
2023-04-16T20:24:24.335Z,10.79
2023-04-16T20:29:27.818Z,13.38
2023-04-16T20:34:31.122Z,14.82
2023-04-16T20:39:34.454Z,14.70
2023-04-16T20:44:41.643Z,12.70
2023-04-16T20:49:46.429Z,11.40
2023-04-16T20:54:52.270Z,10.64
2023-04-16T20:59:56.582Z,10.10
2023-04-16T21:04:59.701Z,10.84
2023-04-16T21:10:03.034Z,13.64
2023-04-16T21:15:07.668Z,15.01
2023-04-16T21:20:13.678Z,14.85
2023-04-16T21:25:17.160Z,12.71
2023-04-16T21:30:20.246Z,11.41
2023-04-16T21:35:23.352Z,10.59
2023-04-16T21:40:26.985Z,10.00
2023-04-16T21:45:31.106Z,10.68
2023-04-16T21:50:34.146Z,13.41
2023-04-16T21:55:38.040Z,14.51
2023-04-16T22:00:41.188Z,14.22
2023-04-16T22:05:46.143Z,12.34
2023-04-16T22:10:49.209Z,11.10
2023-04-16T22:15:53.741Z,10.21
2023-04-16T22:20:56.855Z,10.54
2023-04-16T22:26:00.051Z,12.61
2023-04-16T22:31:03.270Z,13.72
2023-04-16T22:36:07.108Z,14.39
2023-04-16T22:41:10.181Z,14.14
2023-04-16T22:46:13.376Z,12.33
2023-04-16T22:51:16.709Z,11.10
2023-04-16T22:56:20.378Z,10.22
2023-04-16T23:01:24.830Z,10.49
2023-04-16T23:06:28.084Z,12.64
2023-04-16T23:11:31.382Z,13.92
2023-04-16T23:16:34.404Z,14.68
2023-04-16T23:21:37.423Z,14.38
2023-04-16T23:26:40.604Z,12.54
2023-04-16T23:31:43.654Z,11.32
2023-04-16T23:36:46.826Z,10.47
2023-04-16T23:41:49.820Z,10.99
2023-04-16T23:46:53.188Z,14.09
2023-04-16T23:51:56.264Z,15.64
2023-04-16T23:56:59.339Z,15.35
